Time,TemperatureF,DewpointF,PressureIn,WindDirection,WindDirectionDegrees,WindSpeedMPH,WindSpeedGustMPH,Humidity,HourlyPrecipIn,Conditions,Clouds,dailyrainin,SoftwareType,DateUTC
2013-04-02 00:00:00,28.7,17.7,30.19,NW,326,0.0,0.0,63,0.00,,,0.00,Wunderground v.1.15,2013-04-02 04:00:00,
2013-04-02 00:03:00,28.6,17.6,30.19,NW,326,0.0,0.0,63,0.00,,,0.00,Wunderground v.1.15,2013-04-02 04:03:00,
2013-04-02 00:04:00,28.6,18.0,30.19,NW,326,0.0,0.0,64,0.00,,,0.00,Wunderground v.1.15,2013-04-02 04:04:00,
2013-04-02 00:10:00,28.4,17.4,30.19,NW,326,0.0,0.0,63,0.00,,,0.00,Wunderground v.1.15,2013-04-02 04:10:00,
2013-04-02 00:13:00,28.2,17.2,30.19,NW,326,0.0,0.0,63,0.00,,,0.00,Wunderground v.1.15,2013-04-02 04:13:00,
2013-04-02 00:18:00,28.0,17.4,30.19,NW,326,0.0,0.0,64,0.00,,,0.00,Wunderground v.1.15,2013-04-02 04:18:00,
2013-04-02 00:24:00,27.7,17.1,30.19,NW,326,0.0,0.0,64,0.00,,,0.00,Wunderground v.1.15,2013-04-02 04:24:00,
2013-04-02 00:30:00,27.2,17.3,30.19,NW,324,0.0,0.0,66,0.00,,,0.00,Wunderground v.1.15,2013-04-02 04:30:00,
2013-04-02 00:35:00,26.9,17.4,30.19,NW,324,0.0,3.0,67,0.00,,,0.00,Wunderground v.1.15,2013-04-02 04:35:00,
2013-04-02 00:42:00,26.6,17.5,30.19,West,260,1.0,3.0,68,0.00,,,0.00,Wunderground v.1.15,2013-04-02 04:42:00,
2013-04-02 00:47:00,26.5,17.4,30.19,SW,214,1.0,3.0,68,0.00,,,0.00,Wunderground v.1.15,2013-04-02 04:47:00,
2013-04-02 00:52:00,26.3,17.5,30.19,SSW,207,1.0,3.0,69,0.00,,,0.00,Wunderground v.1.15,2013-04-02 04:52:00,
2013-04-02 00:58:00,26.1,18.0,30.19,SSW,204,2.0,3.0,71,0.00,,,0.00,Wunderground v.1.15,2013-04-02 04:58:00,
2013-04-02 01:04:00,26.1,18.0,30.19,SSW,206,2.0,2.0,71,0.00,,,0.00,Wunderground v.1.15,2013-04-02 05:04:00,
2013-04-02 01:10:00,26.0,17.9,30.20,SSW,205,1.0,1.0,71,0.00,,,0.00,Wunderground v.1.15,2013-04-02 05:10:00,
2013-04-02 01:17:00,25.7,17.6,30.20,SSW,205,0.0,1.0,71,0.00,,,0.00,Wunderground v.1.15,2013-04-02 05:17:00,
2013-04-02 01:23:00,25.2,17.4,30.20,SSW,204,0.0,0.0,72,0.00,,,0.00,Wunderground v.1.15,2013-04-02 05:23:00,
2013-04-02 01:29:00,25.1,16.7,30.19,SSW,204,0.0,1.0,70,0.00,,,0.00,Wunderground v.1.15,2013-04-02 05:29:00,
2013-04-02 01:34:00,25.3,16.9,30.19,SSW,204,0.0,1.0,70,0.00,,,0.00,Wunderground v.1.15,2013-04-02 05:34:00,
2013-04-02 01:40:00,25.3,16.5,30.20,SSW,204,0.0,1.0,69,0.00,,,0.00,Wunderground v.1.15,2013-04-02 05:40:00,
2013-04-02 01:47:00,25.2,16.5,30.19,SSW,203,0.0,1.0,69,0.00,,,0.00,Wunderground v.1.15,2013-04-02 05:47:00,
2013-04-02 01:52:00,25.0,16.6,30.19,SSW,203,0.0,1.0,70,0.00,,,0.00,Wunderground v.1.15,2013-04-02 05:52:00,
2013-04-02 01:58:00,24.6,16.5,30.20,SSW,204,0.0,1.0,71,0.00,,,0.00,Wunderground v.1.15,2013-04-02 05:58:00,
2013-04-02 02:04:00,24.5,16.8,30.20,SSW,204,0.0,0.0,72,0.00,,,0.00,Wunderground v.1.15,2013-04-02 06:04:00,
2013-04-02 02:10:00,24.1,16.7,30.20,SSW,204,0.0,0.0,73,0.00,,,0.00,Wunderground v.1.15,2013-04-02 06:10:00,
2013-04-02 02:16:00,24.2,16.8,30.20,SSW,203,0.0,1.0,73,0.00,,,0.00,Wunderground v.1.15,2013-04-02 06:16:00,
2013-04-02 02:22:00,24.2,16.8,30.20,SSW,204,1.0,1.0,73,0.00,,,0.00,Wunderground v.1.15,2013-04-02 06:22:00,
2013-04-02 02:27:00,24.0,16.9,30.20,SSW,203,1.0,1.0,74,0.00,,,0.00,Wunderground v.1.15,2013-04-02 06:27:00,
2013-04-02 02:33:00,24.1,17.6,30.20,SSW,204,1.0,2.0,76,0.00,,,0.00,Wunderground v.1.15,2013-04-02 06:33:00,
2013-04-02 02:39:00,24.3,18.7,30.20,SSW,204,1.0,2.0,79,0.00,,,0.00,Wunderground v.1.15,2013-04-02 06:39:00,
2013-04-02 02:44:00,24.2,18.9,30.20,SSW,205,1.0,2.0,80,0.00,,,0.00,Wunderground v.1.15,2013-04-02 06:44:00,
2013-04-02 02:50:00,24.1,18.5,30.20,SSW,205,0.0,2.0,79,0.00,,,0.00,Wunderground v.1.15,2013-04-02 06:50:00,
2013-04-02 02:55:00,24.0,19.0,30.20,SSW,207,0.0,2.0,81,0.00,,,0.00,Wunderground v.1.15,2013-04-02 06:55:00,
2013-04-02 03:00:00,24.0,18.7,30.20,SSW,212,0.0,1.0,80,0.00,,,0.00,Wunderground v.1.15,2013-04-02 07:00:00,
2013-04-02 03:05:00,24.2,18.6,30.20,SSW,198,1.0,2.0,79,0.00,,,0.00,Wunderground v.1.15,2013-04-02 07:05:00,
2013-04-02 03:11:00,23.9,18.6,30.20,SSE,163,2.0,2.0,80,0.00,,,0.00,Wunderground v.1.15,2013-04-02 07:11:00,
2013-04-02 03:17:00,23.7,18.7,30.20,SSE,163,2.0,2.0,81,0.00,,,0.00,Wunderground v.1.15,2013-04-02 07:17:00,
2013-04-02 03:23:00,23.7,18.7,30.20,SSE,165,1.0,1.0,81,0.00,,,0.00,Wunderground v.1.15,2013-04-02 07:23:00,
2013-04-02 03:28:00,23.8,18.8,30.20,SSE,165,1.0,1.0,81,0.00,,,0.00,Wunderground v.1.15,2013-04-02 07:28:00,
2013-04-02 03:33:00,23.7,18.7,30.20,SSE,165,1.0,1.0,81,0.00,,,0.00,Wunderground v.1.15,2013-04-02 07:33:00,
2013-04-02 03:38:00,23.5,18.5,30.20,SSE,165,0.0,1.0,81,0.00,,,0.00,Wunderground v.1.15,2013-04-02 07:38:00,
2013-04-02 03:43:00,23.5,18.2,30.20,WSW,240,0.0,1.0,80,0.00,,,0.00,Wunderground v.1.15,2013-04-02 07:43:00,
2013-04-02 03:48:00,23.6,18.6,30.20,WSW,244,1.0,1.0,81,0.00,,,0.00,Wunderground v.1.15,2013-04-02 07:48:00,
2013-04-02 03:54:00,23.9,18.9,30.20,SW,229,1.0,2.0,81,0.00,,,0.00,Wunderground v.1.15,2013-04-02 07:54:00,
2013-04-02 04:00:00,24.1,18.5,30.20,SW,231,2.0,2.0,79,0.00,,,0.00,Wunderground v.1.15,2013-04-02 08:00:00,
2013-04-02 04:05:00,24.2,18.3,30.20,WSW,245,1.0,2.0,78,0.00,,,0.00,Wunderground v.1.15,2013-04-02 08:05:00,
2013-04-02 04:10:00,24.5,18.6,30.20,WSW,239,1.0,1.0,78,0.00,,,0.00,Wunderground v.1.15,2013-04-02 08:10:00,
2013-04-02 04:16:00,24.7,18.8,30.20,West,278,1.0,1.0,78,0.00,,,0.00,Wunderground v.1.15,2013-04-02 08:16:00,
2013-04-02 04:22:00,25.0,18.8,30.20,West,280,1.0,1.0,77,0.00,,,0.00,Wunderground v.1.15,2013-04-02 08:22:00,
2013-04-02 04:28:00,25.2,19.0,30.20,WNW,293,1.0,2.0,77,0.00,,,0.00,Wunderground v.1.15,2013-04-02 08:28:00,
2013-04-02 04:34:00,25.4,19.2,30.21,WNW,291,1.0,3.0,77,0.00,,,0.00,Wunderground v.1.15,2013-04-02 08:34:00,
2013-04-02 04:40:00,25.6,19.4,30.21,WNW,293,2.0,3.0,77,0.00,,,0.00,Wunderground v.1.15,2013-04-02 08:40:00,
2013-04-02 04:47:00,25.5,19.0,30.21,WSW,246,2.0,3.0,76,0.00,,,0.00,Wunderground v.1.15,2013-04-02 08:47:00,
2013-04-02 04:53:00,25.4,18.6,30.21,West,273,2.0,3.0,75,0.00,,,0.00,Wunderground v.1.15,2013-04-02 08:53:00,
2013-04-02 04:59:00,25.4,18.3,30.21,WNW,285,1.0,3.0,74,0.00,,,0.00,Wunderground v.1.15,2013-04-02 08:59:00,
2013-04-02 05:04:00,25.4,18.3,30.21,WNW,283,1.0,2.0,74,0.00,,,0.00,Wunderground v.1.15,2013-04-02 09:04:00,
2013-04-02 05:10:00,25.6,18.5,30.21,NW,312,2.0,2.0,74,0.00,,,0.00,Wunderground v.1.15,2013-04-02 09:10:00,
2013-04-02 05:16:00,25.7,18.2,30.22,West,276,2.0,4.0,73,0.00,,,0.00,Wunderground v.1.15,2013-04-02 09:16:00,
2013-04-02 05:22:00,25.7,18.2,30.22,NNW,328,2.0,5.0,73,0.00,,,0.00,Wunderground v.1.15,2013-04-02 09:22:00,
2013-04-02 05:27:00,25.8,18.0,30.22,WNW,299,3.0,5.0,72,0.00,,,0.00,Wunderground v.1.15,2013-04-02 09:27:00,
2013-04-02 05:33:00,25.9,18.1,30.23,NW,309,3.0,5.0,72,0.00,,,0.00,Wunderground v.1.15,2013-04-02 09:33:00,
2013-04-02 05:39:00,26.1,18.3,30.23,NW,314,3.0,5.0,72,0.00,,,0.00,Wunderground v.1.15,2013-04-02 09:39:00,
2013-04-02 05:44:00,26.0,18.2,30.23,NW,316,3.0,4.0,72,0.00,,,0.00,Wunderground v.1.15,2013-04-02 09:44:00,
2013-04-02 05:50:00,26.1,18.3,30.23,NW,306,4.0,5.0,72,0.00,,,0.00,Wunderground v.1.15,2013-04-02 09:50:00,
2013-04-02 05:55:00,26.1,18.3,30.24,NW,308,4.0,5.0,72,0.00,,,0.00,Wunderground v.1.15,2013-04-02 09:55:00,
2013-04-02 06:00:00,26.1,18.3,30.24,NW,312,4.0,4.0,72,0.00,,,0.00,Wunderground v.1.15,2013-04-02 10:00:00,
2013-04-02 06:08:00,26.0,18.2,30.24,NW,316,4.0,5.0,72,0.00,,,0.00,Wunderground v.1.15,2013-04-02 10:08:00,
2013-04-02 06:13:00,25.9,18.1,30.24,WNW,302,4.0,5.0,72,0.00,,,0.00,Wunderground v.1.15,2013-04-02 10:13:00,
2013-04-02 06:19:00,25.7,18.2,30.24,West,273,3.0,5.0,73,0.00,,,0.00,Wunderground v.1.15,2013-04-02 10:19:00,
2013-04-02 06:24:00,25.8,18.3,30.25,NW,310,3.0,5.0,73,0.00,,,0.00,Wunderground v.1.15,2013-04-02 10:24:00,
2013-04-02 06:30:00,25.7,18.2,30.25,NW,306,4.0,4.0,73,0.00,,,0.00,Wunderground v.1.15,2013-04-02 10:30:00,
2013-04-02 06:35:00,25.6,18.1,30.25,NW,312,4.0,6.0,73,0.00,,,0.00,Wunderground v.1.15,2013-04-02 10:35:00,
2013-04-02 06:41:00,25.5,18.0,30.25,WNW,302,3.0,6.0,73,0.00,,,0.00,Wunderground v.1.15,2013-04-02 10:41:00,
2013-04-02 06:47:00,25.3,18.2,30.25,WNW,301,2.0,6.0,74,0.00,,,0.00,Wunderground v.1.15,2013-04-02 10:47:00,
2013-04-02 06:53:00,25.2,18.1,30.26,WNW,283,1.0,6.0,74,0.00,,,0.00,Wunderground v.1.15,2013-04-02 10:53:00,
2013-04-02 06:59:00,25.0,17.9,30.26,West,276,2.0,6.0,74,0.00,,,0.00,Wunderground v.1.15,2013-04-02 10:59:00,
2013-04-02 07:05:00,25.1,17.7,30.26,WNW,284,2.0,2.0,73,0.00,,,0.00,Wunderground v.1.15,2013-04-02 11:05:00,
2013-04-02 07:10:00,25.1,17.7,30.26,WNW,286,2.0,2.0,73,0.00,,,0.00,Wunderground v.1.15,2013-04-02 11:10:00,
2013-04-02 07:16:00,25.1,17.7,30.26,WSW,245,1.0,2.0,73,0.00,,,0.00,Wunderground v.1.15,2013-04-02 11:16:00,
2013-04-02 07:22:00,24.7,17.9,30.26,SW,230,1.0,2.0,75,0.00,,,0.00,Wunderground v.1.15,2013-04-02 11:22:00,
2013-04-02 07:28:00,24.6,18.1,30.26,SW,233,2.0,2.0,76,0.00,,,0.00,Wunderground v.1.15,2013-04-02 11:28:00,
2013-04-02 07:34:00,24.5,18.3,30.26,SW,226,2.0,7.0,77,0.00,,,0.00,Wunderground v.1.15,2013-04-02 11:34:00,
2013-04-02 07:39:00,24.5,18.3,30.27,SW,224,2.0,7.0,77,0.00,,,0.00,Wunderground v.1.15,2013-04-02 11:39:00,
2013-04-02 07:45:00,24.5,18.3,30.27,SW,224,2.0,7.0,77,0.00,,,0.00,Wunderground v.1.15,2013-04-02 11:45:00,
2013-04-02 07:51:00,24.6,18.4,30.27,WSW,238,2.0,7.0,77,0.00,,,0.00,Wunderground v.1.15,2013-04-02 11:51:00,
2013-04-02 07:57:00,24.6,18.4,30.27,WSW,245,2.0,7.0,77,0.00,,,0.00,Wunderground v.1.15,2013-04-02 11:57:00,
2013-04-02 08:02:00,25.0,18.8,30.27,WSW,248,2.0,2.0,77,0.00,,,0.00,Wunderground v.1.15,2013-04-02 12:02:00,
2013-04-02 08:08:00,25.4,18.9,30.28,WSW,248,2.0,3.0,76,0.00,,,0.00,Wunderground v.1.15,2013-04-02 12:08:00,
2013-04-02 08:14:00,25.9,19.1,30.28,SW,229,2.0,2.0,75,0.00,,,0.00,Wunderground v.1.15,2013-04-02 12:14:00,
2013-04-02 08:20:00,26.4,18.9,30.28,West,272,2.0,2.0,73,0.00,,,0.00,Wunderground v.1.15,2013-04-02 12:20:00,
2013-04-02 08:26:00,26.7,19.2,30.28,NW,306,2.0,4.0,73,0.00,,,0.00,Wunderground v.1.15,2013-04-02 12:26:00,
2013-04-02 08:31:00,27.3,19.1,30.29,WSW,249,2.0,4.0,71,0.00,,,0.00,Wunderground v.1.15,2013-04-02 12:31:00,
2013-04-02 08:37:00,27.7,19.5,30.29,NNE,33,3.0,5.0,71,0.00,,,0.00,Wunderground v.1.15,2013-04-02 12:37:00,
2013-04-02 08:43:00,28.1,19.9,30.29,NE,53,3.0,4.0,71,0.00,,,0.00,Wunderground v.1.15,2013-04-02 12:43:00,
2013-04-02 08:48:00,28.4,19.5,30.29,WNW,299,3.0,4.0,69,0.00,,,0.00,Wunderground v.1.15,2013-04-02 12:48:00,
2013-04-02 08:54:00,28.8,19.6,30.30,WNW,288,3.0,5.0,68,0.00,,,0.00,Wunderground v.1.15,2013-04-02 12:54:00,
2013-04-02 08:59:00,29.0,19.4,30.30,WNW,302,3.0,6.0,67,0.00,,,0.00,Wunderground v.1.15,2013-04-02 12:59:00,
2013-04-02 09:05:00,29.2,19.9,30.30,NW,312,4.0,7.0,68,0.00,,,0.00,Wunderground v.1.15,2013-04-02 13:05:00,
2013-04-02 09:12:00,29.3,19.3,30.30,WNW,299,5.0,5.0,66,0.00,,,0.00,Wunderground v.1.15,2013-04-02 13:12:00,
2013-04-02 09:17:00,29.7,20.1,30.30,NNW,340,4.0,5.0,67,0.00,,,0.00,Wunderground v.1.15,2013-04-02 13:17:00,
2013-04-02 09:23:00,30.0,20.0,30.30,NNW,329,3.0,6.0,66,0.00,,,0.00,Wunderground v.1.15,2013-04-02 13:23:00,
2013-04-02 09:29:00,30.0,19.7,30.30,NW,316,5.0,8.0,65,0.00,,,0.00,Wunderground v.1.15,2013-04-02 13:29:00,
2013-04-02 09:35:00,30.5,20.8,30.31,NW,311,5.0,7.0,67,0.00,,,0.00,Wunderground v.1.15,2013-04-02 13:35:00,
2013-04-02 09:42:00,30.8,20.8,30.31,NW,308,5.0,9.0,66,0.00,,,0.00,Wunderground v.1.15,2013-04-02 13:42:00,
2013-04-02 09:48:00,30.8,20.8,30.31,NW,311,7.0,9.0,66,0.00,,,0.00,Wunderground v.1.15,2013-04-02 13:48:00,
2013-04-02 09:53:00,30.9,19.8,30.31,NW,314,7.0,12.0,63,0.00,,,0.00,Wunderground v.1.15,2013-04-02 13:53:00,
2013-04-02 09:59:00,31.0,20.6,30.31,NW,317,7.0,12.0,65,0.00,,,0.00,Wunderground v.1.15,2013-04-02 13:59:00,
2013-04-02 10:05:00,31.4,19.5,30.31,NW,307,6.0,10.0,61,0.00,,,0.00,Wunderground v.1.15,2013-04-02 14:05:00,
2013-04-02 10:12:00,31.4,19.1,30.31,NW,311,8.0,11.0,60,0.00,,,0.00,Wunderground v.1.15,2013-04-02 14:12:00,
2013-04-02 10:18:00,31.8,19.5,30.31,NNW,328,8.0,11.0,60,0.00,,,0.00,Wunderground v.1.15,2013-04-02 14:18:00,
2013-04-02 10:23:00,32.1,19.8,30.31,NW,319,6.0,9.0,60,0.00,,,0.00,Wunderground v.1.15,2013-04-02 14:23:00,
2013-04-02 10:28:00,32.4,18.8,30.32,North,351,6.0,10.0,57,0.00,,,0.00,Wunderground v.1.15,2013-04-02 14:28:00,
2013-04-02 10:34:00,32.6,18.2,30.32,WSW,245,6.0,10.0,55,0.00,,,0.00,Wunderground v.1.15,2013-04-02 14:34:00,
2013-04-02 10:40:00,32.3,18.8,30.31,NNW,334,6.0,10.0,57,0.00,,,0.00,Wunderground v.1.15,2013-04-02 14:40:00,
2013-04-02 10:47:00,32.8,18.8,30.31,NW,311,6.0,11.0,56,0.00,,,0.00,Wunderground v.1.15,2013-04-02 14:47:00,
2013-04-02 10:53:00,33.0,18.1,30.32,NNW,333,7.0,10.0,54,0.00,,,0.00,Wunderground v.1.15,2013-04-02 14:53:00,
2013-04-02 10:59:00,33.0,17.3,30.32,NW,321,8.0,14.0,52,0.00,,,0.00,Wunderground v.1.15,2013-04-02 14:59:00,
2013-04-02 11:05:00,33.4,18.9,30.32,NW,316,7.0,9.0,55,0.00,,,0.00,Wunderground v.1.15,2013-04-02 15:05:00,
2013-04-02 11:12:00,33.9,19.0,30.32,SE,127,5.0,9.0,54,0.00,,,0.00,Wunderground v.1.15,2013-04-02 15:12:00,
2013-04-02 11:18:00,34.2,19.3,30.32,West,259,5.0,9.0,54,0.00,,,0.00,Wunderground v.1.15,2013-04-02 15:18:00,
2013-04-02 11:24:00,34.6,17.4,30.32,NW,309,7.0,9.0,49,0.00,,,0.00,Wunderground v.1.15,2013-04-02 15:24:00,
2013-04-02 11:30:00,34.2,16.5,30.32,NW,318,8.0,8.0,48,0.00,,,0.00,Wunderground v.1.15,2013-04-02 15:30:00,
2013-04-02 11:35:00,34.3,17.1,30.32,SW,232,6.0,14.0,49,0.00,,,0.00,Wunderground v.1.15,2013-04-02 15:35:00,
2013-04-02 11:40:00,34.9,17.7,30.32,NNE,27,4.0,4.0,49,0.00,,,0.00,Wunderground v.1.15,2013-04-02 15:40:00,
2013-04-02 11:45:00,35.0,16.8,30.32,NNW,344,4.0,14.0,47,0.00,,,0.00,Wunderground v.1.15,2013-04-02 15:45:00,
2013-04-02 11:52:00,35.7,17.9,30.32,SW,233,5.0,14.0,48,0.00,,,0.00,Wunderground v.1.15,2013-04-02 15:52:00,
2013-04-02 11:57:00,35.2,16.5,30.32,NNW,334,6.0,14.0,46,0.00,,,0.00,Wunderground v.1.15,2013-04-02 15:57:00,
2013-04-02 12:02:00,35.8,19.0,30.32,NNW,343,6.0,7.0,50,0.00,,,0.00,Wunderground v.1.15,2013-04-02 16:02:00,
2013-04-02 12:08:00,35.9,16.6,30.32,WNW,300,5.0,9.0,45,0.00,,,0.00,Wunderground v.1.15,2013-04-02 16:08:00,
2013-04-02 12:14:00,35.5,16.2,30.32,NNW,332,6.0,13.0,45,0.00,,,0.00,Wunderground v.1.15,2013-04-02 16:14:00,
2013-04-02 12:19:00,35.6,18.8,30.32,SW,226,7.0,13.0,50,0.00,,,0.00,Wunderground v.1.15,2013-04-02 16:19:00,
2013-04-02 12:25:00,35.9,18.6,30.31,WNW,293,6.0,7.0,49,0.00,,,0.00,Wunderground v.1.15,2013-04-02 16:25:00,
2013-04-02 12:30:00,36.6,18.7,30.32,West,276,6.0,7.0,48,0.00,,,0.00,Wunderground v.1.15,2013-04-02 16:30:00,
2013-04-02 12:35:00,36.4,16.5,30.32,WSW,245,6.0,15.0,44,0.00,,,0.00,Wunderground v.1.15,2013-04-02 16:35:00,
2013-04-02 12:40:00,37.2,18.3,30.31,SW,228,5.0,15.0,46,0.00,,,0.00,Wunderground v.1.15,2013-04-02 16:40:00,
2013-04-02 12:46:00,36.9,18.0,30.31,WSW,252,6.0,15.0,46,0.00,,,0.00,Wunderground v.1.15,2013-04-02 16:46:00,
2013-04-02 12:53:00,37.1,18.2,30.31,NW,304,6.0,15.0,46,0.00,,,0.00,Wunderground v.1.15,2013-04-02 16:53:00,
2013-04-02 12:59:00,37.4,16.9,30.31,WSW,253,7.0,15.0,43,0.00,,,0.00,Wunderground v.1.15,2013-04-02 16:59:00,
2013-04-02 13:04:00,37.4,16.9,30.31,SE,145,7.0,10.0,43,0.00,,,0.00,Wunderground v.1.15,2013-04-02 17:04:00,
2013-04-02 13:09:00,37.2,16.7,30.31,WSW,257,7.0,11.0,43,0.00,,,0.00,Wunderground v.1.15,2013-04-02 17:09:00,
2013-04-02 13:15:00,36.5,16.1,30.31,NW,324,8.0,18.0,43,0.00,,,0.00,Wunderground v.1.15,2013-04-02 17:15:00,
2013-04-02 13:21:00,36.6,19.2,30.30,SW,235,9.0,9.0,49,0.00,,,0.00,Wunderground v.1.15,2013-04-02 17:21:00,
2013-04-02 13:27:00,37.2,15.6,30.30,NNW,327,8.0,12.0,41,0.00,,,0.00,Wunderground v.1.15,2013-04-02 17:27:00,
2013-04-02 13:33:00,36.9,15.4,30.30,NNW,328,10.0,15.0,41,0.00,,,0.00,Wunderground v.1.15,2013-04-02 17:33:00,
2013-04-02 13:38:00,37.2,16.7,30.30,NW,311,9.0,15.0,43,0.00,,,0.00,Wunderground v.1.15,2013-04-02 17:38:00,
2013-04-02 13:44:00,37.1,17.7,30.29,SSE,149,9.0,15.0,45,0.00,,,0.00,Wunderground v.1.15,2013-04-02 17:44:00,
2013-04-02 13:49:00,37.6,19.2,30.29,NNW,334,8.0,16.0,47,0.00,,,0.00,Wunderground v.1.15,2013-04-02 17:49:00,
2013-04-02 13:54:00,37.8,18.3,30.29,WNW,299,9.0,15.0,45,0.00,,,0.00,Wunderground v.1.15,2013-04-02 17:54:00,
2013-04-02 14:00:00,38.1,16.4,30.29,NW,306,9.0,9.0,41,0.00,,,0.00,Wunderground v.1.15,2013-04-02 18:00:00,
2013-04-02 14:05:00,37.7,16.1,30.29,NNW,339,10.0,16.0,41,0.00,,,0.00,Wunderground v.1.15,2013-04-02 18:05:00,
2013-04-02 14:12:00,38.1,18.6,30.29,WNW,294,11.0,13.0,45,0.00,,,0.00,Wunderground v.1.15,2013-04-02 18:12:00,
2013-04-02 14:17:00,38.7,18.1,30.29,NW,318,9.0,13.0,43,0.00,,,0.00,Wunderground v.1.15,2013-04-02 18:17:00,
2013-04-02 14:22:00,38.3,16.6,30.29,SE,139,8.0,11.0,41,0.00,,,0.00,Wunderground v.1.15,2013-04-02 18:22:00,
2013-04-02 14:28:00,39.0,17.3,30.28,West,281,7.0,15.0,41,0.00,,,0.00,Wunderground v.1.15,2013-04-02 18:28:00,
2013-04-02 14:33:00,39.0,16.1,30.28,NW,307,7.0,19.0,39,0.00,,,0.00,Wunderground v.1.15,2013-04-02 18:33:00,
2013-04-02 14:38:00,39.0,17.3,30.28,NW,307,5.0,19.0,41,0.00,,,0.00,Wunderground v.1.15,2013-04-02 18:38:00,
2013-04-02 14:44:00,39.3,17.0,30.28,SW,222,7.0,19.0,40,0.00,,,0.00,Wunderground v.1.15,2013-04-02 18:44:00,
2013-04-02 14:50:00,39.7,16.7,30.28,SW,214,7.0,7.0,39,0.00,,,0.00,Wunderground v.1.15,2013-04-02 18:50:00,
2013-04-02 14:55:00,40.6,18.7,30.27,WNW,299,5.0,19.0,41,0.00,,,0.00,Wunderground v.1.15,2013-04-02 18:55:00,
2013-04-02 15:00:00,40.1,15.2,30.27,West,279,7.0,7.0,36,0.00,,,0.00,Wunderground v.1.15,2013-04-02 19:00:00,
2013-04-02 15:07:00,40.1,15.9,30.27,NW,315,6.0,12.0,37,0.00,,,0.00,Wunderground v.1.15,2013-04-02 19:07:00,
2013-04-02 15:13:00,40.0,17.6,30.27,SSE,148,8.0,10.0,40,0.00,,,0.00,Wunderground v.1.15,2013-04-02 19:13:00,
2013-04-02 15:18:00,41.2,19.2,30.27,SW,221,8.0,13.0,41,0.00,,,0.00,Wunderground v.1.15,2013-04-02 19:18:00,
2013-04-02 15:24:00,40.9,16.6,30.26,WSW,256,7.0,11.0,37,0.00,,,0.00,Wunderground v.1.15,2013-04-02 19:24:00,
2013-04-02 15:31:00,41.1,17.4,30.26,NW,317,8.0,18.0,38,0.00,,,0.00,Wunderground v.1.15,2013-04-02 19:31:00,
2013-04-02 15:37:00,41.1,15.5,30.26,WNW,301,8.0,18.0,35,0.00,,,0.00,Wunderground v.1.15,2013-04-02 19:37:00,
2013-04-02 15:43:00,40.9,16.0,30.26,West,271,8.0,18.0,36,0.00,,,0.00,Wunderground v.1.15,2013-04-02 19:43:00,
2013-04-02 15:48:00,41.3,16.3,30.26,SSE,167,8.0,18.0,36,0.00,,,0.00,Wunderground v.1.15,2013-04-02 19:48:00,
2013-04-02 15:53:00,41.3,15.7,30.26,WSW,238,8.0,18.0,35,0.00,,,0.00,Wunderground v.1.15,2013-04-02 19:53:00,
2013-04-02 15:59:00,41.3,14.3,30.26,SW,225,8.0,18.0,33,0.00,,,0.00,Wunderground v.1.15,2013-04-02 19:59:00,
2013-04-02 16:05:00,41.1,14.1,30.25,NW,305,8.0,10.0,33,0.00,,,0.00,Wunderground v.1.15,2013-04-02 20:05:00,
2013-04-02 16:10:00,41.1,14.8,30.26,NW,311,9.0,13.0,34,0.00,,,0.00,Wunderground v.1.15,2013-04-02 20:10:00,
2013-04-02 16:16:00,40.8,14.6,30.25,NNW,328,10.0,14.0,34,0.00,,,0.00,Wunderground v.1.15,2013-04-02 20:16:00,
2013-04-02 16:22:00,41.3,14.3,30.25,WNW,299,10.0,19.0,33,0.00,,,0.00,Wunderground v.1.15,2013-04-02 20:22:00,
2013-04-02 16:27:00,40.9,14.6,30.25,NW,305,10.0,19.0,34,0.00,,,0.00,Wunderground v.1.15,2013-04-02 20:27:00,
2013-04-02 16:33:00,42.0,16.9,30.25,WNW,299,8.0,17.0,36,0.00,,,0.00,Wunderground v.1.15,2013-04-02 20:33:00,
2013-04-02 16:39:00,41.4,14.4,30.25,NW,326,10.0,17.0,33,0.00,,,0.00,Wunderground v.1.15,2013-04-02 20:39:00,
2013-04-02 16:44:00,40.9,13.3,30.25,NW,306,11.0,17.0,32,0.00,,,0.00,Wunderground v.1.15,2013-04-02 20:44:00,
2013-04-02 16:50:00,41.4,13.7,30.25,NNW,327,10.0,17.0,32,0.00,,,0.00,Wunderground v.1.15,2013-04-02 20:50:00,
2013-04-02 16:56:00,42.3,15.9,30.25,South,184,9.0,17.0,34,0.00,,,0.00,Wunderground v.1.15,2013-04-02 20:56:00,
2013-04-02 17:02:00,42.9,15.0,30.25,NW,315,6.0,8.0,32,0.00,,,0.00,Wunderground v.1.15,2013-04-02 21:02:00,
2013-04-02 17:09:00,42.1,14.3,30.24,NW,311,7.0,8.0,32,0.00,,,0.00,Wunderground v.1.15,2013-04-02 21:09:00,
2013-04-02 17:15:00,42.7,14.1,30.25,North,352,8.0,12.0,31,0.00,,,0.00,Wunderground v.1.15,2013-04-02 21:15:00,
2013-04-02 17:22:00,42.8,16.3,30.25,North,6,9.0,12.0,34,0.00,,,0.00,Wunderground v.1.15,2013-04-02 21:22:00,
2013-04-02 17:27:00,42.8,13.5,30.25,NW,311,6.0,12.0,30,0.00,,,0.00,Wunderground v.1.15,2013-04-02 21:27:00,
2013-04-02 17:32:00,43.2,15.3,30.25,North,358,5.0,20.0,32,0.00,,,0.00,Wunderground v.1.15,2013-04-02 21:32:00,
2013-04-02 17:38:00,42.7,14.1,30.25,NW,317,9.0,26.0,31,0.00,,,0.00,Wunderground v.1.15,2013-04-02 21:38:00,
2013-04-02 17:44:00,41.9,13.4,30.25,WNW,287,12.0,20.0,31,0.00,,,0.00,Wunderground v.1.15,2013-04-02 21:44:00,
2013-04-02 17:50:00,41.8,14.1,30.25,West,274,11.0,20.0,32,0.00,,,0.00,Wunderground v.1.15,2013-04-02 21:50:00,
2013-04-02 17:56:00,42.2,14.4,30.25,NNW,347,9.0,20.0,32,0.00,,,0.00,Wunderground v.1.15,2013-04-02 21:56:00,
2013-04-02 18:02:00,42.7,14.1,30.25,NW,306,8.0,9.0,31,0.00,,,0.00,Wunderground v.1.15,2013-04-02 22:02:00,
2013-04-02 18:07:00,42.9,13.5,30.25,WNW,297,8.0,11.0,30,0.00,,,0.00,Wunderground v.1.15,2013-04-02 22:07:00,
2013-04-02 18:12:00,42.9,13.5,30.25,NW,324,9.0,18.0,30,0.00,,,0.00,Wunderground v.1.15,2013-04-02 22:12:00,
2013-04-02 18:18:00,42.3,13.0,30.25,WNW,294,9.0,18.0,30,0.00,,,0.00,Wunderground v.1.15,2013-04-02 22:18:00,
2013-04-02 18:24:00,41.8,14.1,30.25,NNE,27,9.0,13.0,32,0.00,,,0.00,Wunderground v.1.15,2013-04-02 22:24:00,
2013-04-02 18:30:00,41.7,13.2,30.25,NW,319,9.0,9.0,31,0.00,,,0.00,Wunderground v.1.15,2013-04-02 22:30:00,
2013-04-02 18:36:00,42.1,14.3,30.25,NW,315,7.0,18.0,32,0.00,,,0.00,Wunderground v.1.15,2013-04-02 22:36:00,
2013-04-02 18:41:00,41.9,13.4,30.25,NW,317,7.0,9.0,31,0.00,,,0.00,Wunderground v.1.15,2013-04-02 22:41:00,
2013-04-02 18:47:00,41.6,13.2,30.25,NW,309,9.0,18.0,31,0.00,,,0.00,Wunderground v.1.15,2013-04-02 22:47:00,
2013-04-02 18:53:00,41.6,14.6,30.25,NNW,337,8.0,18.0,33,0.00,,,0.00,Wunderground v.1.15,2013-04-02 22:53:00,
2013-04-02 18:58:00,41.5,13.8,30.25,NW,311,8.0,18.0,32,0.00,,,0.00,Wunderground v.1.15,2013-04-02 22:58:00,
2013-04-02 19:04:00,41.9,14.1,30.26,WNW,297,8.0,9.0,32,0.00,,,0.00,Wunderground v.1.15,2013-04-02 23:04:00,
2013-04-02 19:09:00,41.9,13.4,30.26,NNW,328,8.0,14.0,31,0.00,,,0.00,Wunderground v.1.15,2013-04-02 23:09:00,
2013-04-02 19:15:00,41.9,14.8,30.26,NNW,330,10.0,17.0,33,0.00,,,0.00,Wunderground v.1.15,2013-04-02 23:15:00,
2013-04-02 19:22:00,42.0,14.2,30.26,NNW,333,9.0,13.0,32,0.00,,,0.00,Wunderground v.1.15,2013-04-02 23:22:00,
2013-04-02 19:28:00,41.5,13.1,30.26,NNW,332,9.0,13.0,31,0.00,,,0.00,Wunderground v.1.15,2013-04-02 23:28:00,
2013-04-02 19:33:00,41.4,13.7,30.26,NNW,336,8.0,21.0,32,0.00,,,0.00,Wunderground v.1.15,2013-04-02 23:33:00,
2013-04-02 19:38:00,41.6,15.3,30.26,North,355,6.0,21.0,34,0.00,,,0.00,Wunderground v.1.15,2013-04-02 23:38:00,
2013-04-02 19:44:00,40.8,12.5,30.26,NNE,13,10.0,21.0,31,0.00,,,0.00,Wunderground v.1.15,2013-04-02 23:44:00,
2013-04-02 19:50:00,40.3,12.7,30.26,NNW,327,12.0,12.0,32,0.00,,,0.00,Wunderground v.1.15,2013-04-02 23:50:00,
2013-04-02 19:56:00,39.8,12.3,30.27,NNW,347,10.0,21.0,32,0.00,,,0.00,Wunderground v.1.15,2013-04-02 23:56:00,
2013-04-02 20:02:00,39.4,11.2,30.27,North,5,10.0,10.0,31,0.00,,,0.00,Wunderground v.1.15,2013-04-03 00:02:00,
2013-04-02 20:08:00,38.9,11.5,30.27,North,11,9.0,11.0,32,0.00,,,0.00,Wunderground v.1.15,2013-04-03 00:08:00,
2013-04-02 20:13:00,38.6,11.2,30.27,North,9,9.0,12.0,32,0.00,,,0.00,Wunderground v.1.15,2013-04-03 00:13:00,
2013-04-02 20:18:00,38.1,10.8,30.27,North,8,10.0,12.0,32,0.00,,,0.00,Wunderground v.1.15,2013-04-03 00:18:00,
2013-04-02 20:24:00,37.7,11.8,30.28,NNE,20,8.0,10.0,34,0.00,,,0.00,Wunderground v.1.15,2013-04-03 00:24:00,
2013-04-02 20:30:00,37.2,10.7,30.28,NNW,333,7.0,8.0,33,0.00,,,0.00,Wunderground v.1.15,2013-04-03 00:30:00,
2013-04-02 20:35:00,37.1,11.3,30.28,NNW,347,7.0,20.0,34,0.00,,,0.00,Wunderground v.1.15,2013-04-03 00:35:00,
2013-04-02 20:40:00,36.7,10.9,30.28,North,352,7.0,7.0,34,0.00,,,0.00,Wunderground v.1.15,2013-04-03 00:40:00,
2013-04-02 20:46:00,36.4,11.3,30.28,NNE,29,5.0,20.0,35,0.00,,,0.00,Wunderground v.1.15,2013-04-03 00:46:00,
2013-04-02 20:53:00,36.1,11.0,30.29,NNW,342,5.0,20.0,35,0.00,,,0.00,Wunderground v.1.15,2013-04-03 00:53:00,
2013-04-02 20:58:00,35.9,11.5,30.29,NNE,19,5.0,20.0,36,0.00,,,0.00,Wunderground v.1.15,2013-04-03 00:58:00,
2013-04-02 21:04:00,35.8,10.8,30.29,NNE,20,5.0,6.0,35,0.00,,,0.00,Wunderground v.1.15,2013-04-03 01:04:00,
2013-04-02 21:10:00,35.6,11.2,30.29,NNE,13,5.0,5.0,36,0.00,,,0.00,Wunderground v.1.15,2013-04-03 01:10:00,
2013-04-02 21:16:00,35.4,10.4,30.30,NNE,20,5.0,5.0,35,0.00,,,0.00,Wunderground v.1.15,2013-04-03 01:16:00,
2013-04-02 21:22:00,35.3,11.0,30.30,NNE,18,5.0,5.0,36,0.00,,,0.00,Wunderground v.1.15,2013-04-03 01:22:00,
2013-04-02 21:28:00,35.1,11.4,30.30,NNE,15,4.0,5.0,37,0.00,,,0.00,Wunderground v.1.15,2013-04-03 01:28:00,
2013-04-02 21:33:00,34.9,10.6,30.30,North,350,5.0,16.0,36,0.00,,,0.00,Wunderground v.1.15,2013-04-03 01:33:00,
2013-04-02 21:38:00,34.7,11.0,30.30,NNE,18,5.0,16.0,37,0.00,,,0.00,Wunderground v.1.15,2013-04-03 01:38:00,
2013-04-02 21:44:00,34.7,11.0,30.31,NNE,18,4.0,16.0,37,0.00,,,0.00,Wunderground v.1.15,2013-04-03 01:44:00,
2013-04-02 21:50:00,34.5,10.9,30.31,NNE,18,3.0,16.0,37,0.00,,,0.00,Wunderground v.1.15,2013-04-03 01:50:00,
2013-04-02 21:56:00,34.3,11.3,30.31,North,11,3.0,16.0,38,0.00,,,0.00,Wunderground v.1.15,2013-04-03 01:56:00,
2013-04-02 22:02:00,34.0,11.0,30.31,NNE,13,2.0,3.0,38,0.00,,,0.00,Wunderground v.1.15,2013-04-03 02:02:00,
2013-04-02 22:07:00,33.9,11.5,30.31,NNE,13,2.0,3.0,39,0.00,,,0.00,Wunderground v.1.15,2013-04-03 02:07:00,
2013-04-02 22:12:00,33.9,10.9,30.32,North,352,3.0,3.0,38,0.00,,,0.00,Wunderground v.1.15,2013-04-03 02:12:00,
2013-04-02 22:18:00,33.7,11.3,30.32,NNW,339,3.0,3.0,39,0.00,,,0.00,Wunderground v.1.15,2013-04-03 02:18:00,
2013-04-02 22:23:00,33.6,11.8,30.32,NNE,19,2.0,3.0,40,0.00,,,0.00,Wunderground v.1.15,2013-04-03 02:23:00,
2013-04-02 22:28:00,33.6,12.4,30.32,North,11,3.0,6.0,41,0.00,,,0.00,Wunderground v.1.15,2013-04-03 02:28:00,
2013-04-02 22:34:00,33.3,13.2,30.32,North,352,4.0,7.0,43,0.00,,,0.00,Wunderground v.1.15,2013-04-03 02:34:00,
2013-04-02 22:39:00,33.2,13.6,30.33,North,357,3.0,7.0,44,0.00,,,0.00,Wunderground v.1.15,2013-04-03 02:39:00,
2013-04-02 22:44:00,33.1,13.5,30.33,North,4,4.0,7.0,44,0.00,,,0.00,Wunderground v.1.15,2013-04-03 02:44:00,
2013-04-02 22:50:00,32.9,13.9,30.33,NNW,342,4.0,4.0,45,0.00,,,0.00,Wunderground v.1.15,2013-04-03 02:50:00,
2013-04-02 22:58:00,32.7,14.2,30.33,NNW,338,3.0,7.0,46,0.00,,,0.00,Wunderground v.1.15,2013-04-03 02:58:00,
2013-04-02 23:03:00,32.5,14.0,30.33,North,360,3.0,4.0,46,0.00,,,0.00,Wunderground v.1.15,2013-04-03 03:03:00,
2013-04-02 23:08:00,32.4,13.9,30.33,NNW,340,3.0,4.0,46,0.00,,,0.00,Wunderground v.1.15,2013-04-03 03:08:00,
2013-04-02 23:14:00,32.3,14.3,30.33,NNW,345,3.0,3.0,47,0.00,,,0.00,Wunderground v.1.15,2013-04-03 03:14:00,
2013-04-02 23:20:00,32.2,14.2,30.33,North,356,2.0,2.0,47,0.00,,,0.00,Wunderground v.1.15,2013-04-03 03:20:00,
2013-04-02 23:26:00,32.0,14.0,30.33,NNW,340,1.0,2.0,47,0.00,,,0.00,Wunderground v.1.15,2013-04-03 03:26:00,
2013-04-02 23:32:00,31.8,13.8,30.33,NNW,340,1.0,7.0,47,0.00,,,0.00,Wunderground v.1.15,2013-04-03 03:32:00,
2013-04-02 23:37:00,31.7,14.2,30.33,NNW,340,1.0,7.0,48,0.00,,,0.00,Wunderground v.1.15,2013-04-03 03:37:00,
2013-04-02 23:43:00,31.4,13.9,30.33,NNW,340,1.0,7.0,48,0.00,,,0.00,Wunderground v.1.15,2013-04-03 03:43:00,
2013-04-02 23:49:00,31.2,14.2,30.33,NNW,340,1.0,7.0,49,0.00,,,0.00,Wunderground v.1.15,2013-04-03 03:49:00,
2013-04-02 23:55:00,30.9,14.4,30.33,NNW,340,0.0,7.0,50,0.00,,,0.00,Wunderground v.1.15,2013-04-03 03:55:00,